sensor_id;sensor_type;location;lat;lon;timestamp;temperature;humidity
71212;DHT22;58957;37.742;-0.742;2023-01-26T00:00:21;9.60;99.90
71212;DHT22;58957;37.742;-0.742;2023-01-26T00:02:48;9.60;99.90
71212;DHT22;58957;37.742;-0.742;2023-01-26T00:05:15;9.40;99.90
71212;DHT22;58957;37.742;-0.742;2023-01-26T00:07:42;9.30;99.90
71212;DHT22;58957;37.742;-0.742;2023-01-26T00:10:10;9.10;99.90
71212;DHT22;58957;37.742;-0.742;2023-01-26T00:12:38;9.10;99.90
71212;DHT22;58957;37.742;-0.742;2023-01-26T00:15:07;9.10;99.90
71212;DHT22;58957;37.742;-0.742;2023-01-26T00:17:34;9.20;99.90
71212;DHT22;58957;37.742;-0.742;2023-01-26T00:20:03;9.30;99.90
71212;DHT22;58957;37.742;-0.742;2023-01-26T00:22:30;9.40;99.90
71212;DHT22;58957;37.742;-0.742;2023-01-26T00:24:57;9.40;99.90
71212;DHT22;58957;37.742;-0.742;2023-01-26T00:27:25;9.40;99.90
71212;DHT22;58957;37.742;-0.742;2023-01-26T00:29:52;9.40;99.90
71212;DHT22;58957;37.742;-0.742;2023-01-26T00:32:20;9.50;99.90
71212;DHT22;58957;37.742;-0.742;2023-01-26T00:34:47;9.60;99.90
71212;DHT22;58957;37.742;-0.742;2023-01-26T00:37:14;9.70;99.90
71212;DHT22;58957;37.742;-0.742;2023-01-26T00:39:41;9.70;99.90
71212;DHT22;58957;37.742;-0.742;2023-01-26T00:42:10;9.70;99.90
71212;DHT22;58957;37.742;-0.742;2023-01-26T00:44:39;9.70;99.90
71212;DHT22;58957;37.742;-0.742;2023-01-26T00:47:08;9.70;99.90
71212;DHT22;58957;37.742;-0.742;2023-01-26T00:49:37;9.80;99.90
71212;DHT22;58957;37.742;-0.742;2023-01-26T00:52:05;9.70;99.90
71212;DHT22;58957;37.742;-0.742;2023-01-26T00:54:32;9.50;99.90
71212;DHT22;58957;37.742;-0.742;2023-01-26T00:57:00;9.40;99.90
71212;DHT22;58957;37.742;-0.742;2023-01-26T00:59:27;9.40;99.90
71212;DHT22;58957;37.742;-0.742;2023-01-26T01:01:56;9.30;99.90
71212;DHT22;58957;37.742;-0.742;2023-01-26T01:04:24;9.40;99.90
71212;DHT22;58957;37.742;-0.742;2023-01-26T01:06:52;9.60;99.90
71212;DHT22;58957;37.742;-0.742;2023-01-26T01:09:19;9.60;99.90
71212;DHT22;58957;37.742;-0.742;2023-01-26T01:11:47;9.70;99.90
71212;DHT22;58957;37.742;-0.742;2023-01-26T01:14:14;9.70;99.90
71212;DHT22;58957;37.742;-0.742;2023-01-26T01:16:41;9.70;99.90
71212;DHT22;58957;37.742;-0.742;2023-01-26T01:19:12;9.70;99.90
71212;DHT22;58957;37.742;-0.742;2023-01-26T01:21:39;9.80;99.90
71212;DHT22;58957;37.742;-0.742;2023-01-26T01:24:08;9.80;99.90
71212;DHT22;58957;37.742;-0.742;2023-01-26T01:26:36;9.80;99.90
71212;DHT22;58957;37.742;-0.742;2023-01-26T01:29:03;9.90;99.90
71212;DHT22;58957;37.742;-0.742;2023-01-26T01:31:30;10.00;99.90
71212;DHT22;58957;37.742;-0.742;2023-01-26T01:33:58;10.10;99.90
71212;DHT22;58957;37.742;-0.742;2023-01-26T01:36:25;10.10;99.90
71212;DHT22;58957;37.742;-0.742;2023-01-26T01:38:53;10.10;99.30
71212;DHT22;58957;37.742;-0.742;2023-01-26T01:41:22;10.20;96.30
71212;DHT22;58957;37.742;-0.742;2023-01-26T01:43:49;10.20;97.10
71212;DHT22;58957;37.742;-0.742;2023-01-26T01:46:23;10.20;97.00
71212;DHT22;58957;37.742;-0.742;2023-01-26T01:48:57;10.20;97.90
71212;DHT22;58957;37.742;-0.742;2023-01-26T01:51:30;10.20;95.50
71212;DHT22;58957;37.742;-0.742;2023-01-26T01:54:03;10.20;97.70
71212;DHT22;58957;37.742;-0.742;2023-01-26T01:56:33;10.10;98.30
71212;DHT22;58957;37.742;-0.742;2023-01-26T01:59:02;10.00;99.90
71212;DHT22;58957;37.742;-0.742;2023-01-26T02:01:30;10.00;99.90
71212;DHT22;58957;37.742;-0.742;2023-01-26T02:03:59;9.90;99.90
71212;DHT22;58957;37.742;-0.742;2023-01-26T02:06:29;9.70;99.90
71212;DHT22;58957;37.742;-0.742;2023-01-26T02:08:58;9.70;99.90
71212;DHT22;58957;37.742;-0.742;2023-01-26T02:11:30;9.60;99.90
71212;DHT22;58957;37.742;-0.742;2023-01-26T02:14:02;9.60;99.90
71212;DHT22;58957;37.742;-0.742;2023-01-26T02:16:30;9.50;99.90
71212;DHT22;58957;37.742;-0.742;2023-01-26T02:18:58;9.50;99.90
71212;DHT22;58957;37.742;-0.742;2023-01-26T02:21:25;9.50;99.90
71212;DHT22;58957;37.742;-0.742;2023-01-26T02:24:06;9.40;99.90
71212;DHT22;58957;37.742;-0.742;2023-01-26T02:26:37;9.40;99.90
71212;DHT22;58957;37.742;-0.742;2023-01-26T02:29:07;9.50;99.90
71212;DHT22;58957;37.742;-0.742;2023-01-26T02:31:36;9.50;99.90
71212;DHT22;58957;37.742;-0.742;2023-01-26T02:34:04;9.50;99.90
71212;DHT22;58957;37.742;-0.742;2023-01-26T02:36:32;9.40;99.90
71212;DHT22;58957;37.742;-0.742;2023-01-26T02:39:14;9.40;99.90
71212;DHT22;58957;37.742;-0.742;2023-01-26T02:41:45;9.40;99.90
71212;DHT22;58957;37.742;-0.742;2023-01-26T02:44:31;9.40;99.90
71212;DHT22;58957;37.742;-0.742;2023-01-26T02:46:58;9.40;99.90
71212;DHT22;58957;37.742;-0.742;2023-01-26T02:49:25;9.40;99.90
71212;DHT22;58957;37.742;-0.742;2023-01-26T02:52:10;9.50;99.90
71212;DHT22;58957;37.742;-0.742;2023-01-26T02:54:37;9.50;99.90
71212;DHT22;58957;37.742;-0.742;2023-01-26T02:57:23;9.50;99.90
71212;DHT22;58957;37.742;-0.742;2023-01-26T02:59:51;9.50;99.90
71212;DHT22;58957;37.742;-0.742;2023-01-26T03:02:18;9.60;99.70
71212;DHT22;58957;37.742;-0.742;2023-01-26T03:04:45;9.60;98.90
71212;DHT22;58957;37.742;-0.742;2023-01-26T03:07:13;9.60;99.30
71212;DHT22;58957;37.742;-0.742;2023-01-26T03:09:40;9.60;99.90
71212;DHT22;58957;37.742;-0.742;2023-01-26T03:12:07;9.60;98.30
71212;DHT22;58957;37.742;-0.742;2023-01-26T03:14:36;9.70;96.70
71212;DHT22;58957;37.742;-0.742;2023-01-26T03:17:03;9.80;93.10
71212;DHT22;58957;37.742;-0.742;2023-01-26T03:19:30;9.80;92.60
71212;DHT22;58957;37.742;-0.742;2023-01-26T03:22:15;9.80;90.60
71212;DHT22;58957;37.742;-0.742;2023-01-26T03:24:59;9.80;91.80
71212;DHT22;58957;37.742;-0.742;2023-01-26T03:27:45;9.80;91.30
71212;DHT22;58957;37.742;-0.742;2023-01-26T03:30:17;9.80;90.30
71212;DHT22;58957;37.742;-0.742;2023-01-26T03:32:44;9.80;90.20
71212;DHT22;58957;37.742;-0.742;2023-01-26T03:35:11;9.80;91.30
71212;DHT22;58957;37.742;-0.742;2023-01-26T03:37:47;9.80;90.50
71212;DHT22;58957;37.742;-0.742;2023-01-26T03:40:19;9.80;90.30
71212;DHT22;58957;37.742;-0.742;2023-01-26T03:43:06;9.80;92.00
71212;DHT22;58957;37.742;-0.742;2023-01-26T03:45:52;9.80;91.40
71212;DHT22;58957;37.742;-0.742;2023-01-26T03:48:37;9.70;93.90
71212;DHT22;58957;37.742;-0.742;2023-01-26T03:51:21;9.70;93.20
71212;DHT22;58957;37.742;-0.742;2023-01-26T03:54:06;9.70;90.70
71212;DHT22;58957;37.742;-0.742;2023-01-26T03:56:50;9.80;91.70
71212;DHT22;58957;37.742;-0.742;2023-01-26T03:59:18;9.80;94.40
71212;DHT22;58957;37.742;-0.742;2023-01-26T04:02:04;9.70;94.90
71212;DHT22;58957;37.742;-0.742;2023-01-26T04:04:49;9.60;96.30
71212;DHT22;58957;37.742;-0.742;2023-01-26T04:07:34;9.50;97.20
71212;DHT22;58957;37.742;-0.742;2023-01-26T04:10:18;9.40;95.70
71212;DHT22;58957;37.742;-0.742;2023-01-26T04:12:45;9.30;95.20
71212;DHT22;58957;37.742;-0.742;2023-01-26T04:15:30;9.30;94.90
71212;DHT22;58957;37.742;-0.742;2023-01-26T04:18:16;9.30;95.90
71212;DHT22;58957;37.742;-0.742;2023-01-26T04:21:01;9.30;94.90
71212;DHT22;58957;37.742;-0.742;2023-01-26T04:23:46;9.40;94.10
71212;DHT22;58957;37.742;-0.742;2023-01-26T04:26:13;9.50;93.40
71212;DHT22;58957;37.742;-0.742;2023-01-26T04:28:40;9.50;93.60
71212;DHT22;58957;37.742;-0.742;2023-01-26T04:31:08;9.50;94.50
71212;DHT22;58957;37.742;-0.742;2023-01-26T04:33:36;9.50;92.80
71212;DHT22;58957;37.742;-0.742;2023-01-26T04:36:05;9.50;92.20
71212;DHT22;58957;37.742;-0.742;2023-01-26T04:38:32;9.50;93.10
71212;DHT22;58957;37.742;-0.742;2023-01-26T04:40:59;9.50;93.90
71212;DHT22;58957;37.742;-0.742;2023-01-26T04:43:27;9.40;97.50
71212;DHT22;58957;37.742;-0.742;2023-01-26T04:45:58;9.20;96.30
71212;DHT22;58957;37.742;-0.742;2023-01-26T04:48:25;9.20;97.30
71212;DHT22;58957;37.742;-0.742;2023-01-26T04:50:55;9.20;97.80
71212;DHT22;58957;37.742;-0.742;2023-01-26T04:53:23;9.20;97.70
71212;DHT22;58957;37.742;-0.742;2023-01-26T04:55:50;9.20;98.20
71212;DHT22;58957;37.742;-0.742;2023-01-26T04:58:17;9.20;98.70
71212;DHT22;58957;37.742;-0.742;2023-01-26T05:00:49;9.30;99.90
71212;DHT22;58957;37.742;-0.742;2023-01-26T05:03:17;9.30;97.10
71212;DHT22;58957;37.742;-0.742;2023-01-26T05:05:47;9.40;94.70
71212;DHT22;58957;37.742;-0.742;2023-01-26T05:08:17;9.50;93.20
71212;DHT22;58957;37.742;-0.742;2023-01-26T05:10:44;9.50;92.60
71212;DHT22;58957;37.742;-0.742;2023-01-26T05:13:12;9.50;92.90
71212;DHT22;58957;37.742;-0.742;2023-01-26T05:15:39;9.50;92.20
71212;DHT22;58957;37.742;-0.742;2023-01-26T05:18:08;9.50;92.90
71212;DHT22;58957;37.742;-0.742;2023-01-26T05:20:35;9.50;93.00
71212;DHT22;58957;37.742;-0.742;2023-01-26T05:23:02;9.50;92.20
71212;DHT22;58957;37.742;-0.742;2023-01-26T05:25:31;9.50;94.60
71212;DHT22;58957;37.742;-0.742;2023-01-26T05:27:58;9.50;94.00
71212;DHT22;58957;37.742;-0.742;2023-01-26T05:30:25;9.50;94.10
71212;DHT22;58957;37.742;-0.742;2023-01-26T05:32:52;9.50;93.00
71212;DHT22;58957;37.742;-0.742;2023-01-26T05:35:19;9.50;95.00
71212;DHT22;58957;37.742;-0.742;2023-01-26T05:37:49;9.40;95.40
71212;DHT22;58957;37.742;-0.742;2023-01-26T05:40:16;9.30;95.00
71212;DHT22;58957;37.742;-0.742;2023-01-26T05:42:44;9.30;95.00
71212;DHT22;58957;37.742;-0.742;2023-01-26T05:45:12;9.30;95.20
71212;DHT22;58957;37.742;-0.742;2023-01-26T05:47:39;9.30;94.20
71212;DHT22;58957;37.742;-0.742;2023-01-26T05:50:08;9.30;92.50
71212;DHT22;58957;37.742;-0.742;2023-01-26T05:52:35;9.40;93.80
71212;DHT22;58957;37.742;-0.742;2023-01-26T05:55:03;9.40;93.70
71212;DHT22;58957;37.742;-0.742;2023-01-26T05:57:30;9.40;93.70
71212;DHT22;58957;37.742;-0.742;2023-01-26T05:59:59;9.40;94.00
71212;DHT22;58957;37.742;-0.742;2023-01-26T06:02:26;9.40;94.40
71212;DHT22;58957;37.742;-0.742;2023-01-26T06:04:53;9.50;94.80
71212;DHT22;58957;37.742;-0.742;2023-01-26T06:07:20;9.50;93.90
71212;DHT22;58957;37.742;-0.742;2023-01-26T06:09:48;9.40;94.20
71212;DHT22;58957;37.742;-0.742;2023-01-26T06:12:16;9.40;94.40
71212;DHT22;58957;37.742;-0.742;2023-01-26T06:14:44;9.40;93.10
71212;DHT22;58957;37.742;-0.742;2023-01-26T06:17:13;9.50;94.00
71212;DHT22;58957;37.742;-0.742;2023-01-26T06:19:41;9.40;94.60
71212;DHT22;58957;37.742;-0.742;2023-01-26T06:22:08;9.40;95.40
71212;DHT22;58957;37.742;-0.742;2023-01-26T06:24:36;9.30;96.00
71212;DHT22;58957;37.742;-0.742;2023-01-26T06:27:05;9.30;97.20
71212;DHT22;58957;37.742;-0.742;2023-01-26T06:29:32;9.30;97.20
71212;DHT22;58957;37.742;-0.742;2023-01-26T06:31:59;9.30;96.30
71212;DHT22;58957;37.742;-0.742;2023-01-26T06:34:28;9.30;96.20
71212;DHT22;58957;37.742;-0.742;2023-01-26T06:36:55;9.30;96.00
71212;DHT22;58957;37.742;-0.742;2023-01-26T06:39:22;9.30;95.60
71212;DHT22;58957;37.742;-0.742;2023-01-26T06:41:49;9.30;98.00
71212;DHT22;58957;37.742;-0.742;2023-01-26T06:44:19;9.20;99.90
71212;DHT22;58957;37.742;-0.742;2023-01-26T06:46:46;9.00;99.90
71212;DHT22;58957;37.742;-0.742;2023-01-26T06:49:14;9.00;99.90
71212;DHT22;58957;37.742;-0.742;2023-01-26T06:51:51;9.00;99.80
71212;DHT22;58957;37.742;-0.742;2023-01-26T06:54:20;9.10;99.40
71212;DHT22;58957;37.742;-0.742;2023-01-26T06:56:48;9.00;99.90
71212;DHT22;58957;37.742;-0.742;2023-01-26T06:59:15;8.90;99.90
71212;DHT22;58957;37.742;-0.742;2023-01-26T07:01:45;8.90;98.80
71212;DHT22;58957;37.742;-0.742;2023-01-26T07:04:13;8.90;99.90
71212;DHT22;58957;37.742;-0.742;2023-01-26T07:06:41;9.00;98.30
71212;DHT22;58957;37.742;-0.742;2023-01-26T07:09:10;8.90;99.00
71212;DHT22;58957;37.742;-0.742;2023-01-26T07:11:37;8.90;99.90
71212;DHT22;58957;37.742;-0.742;2023-01-26T07:14:04;8.90;99.90
71212;DHT22;58957;37.742;-0.742;2023-01-26T07:16:32;8.80;99.90
71212;DHT22;58957;37.742;-0.742;2023-01-26T07:18:59;8.80;99.90
71212;DHT22;58957;37.742;-0.742;2023-01-26T07:21:26;8.70;99.90
71212;DHT22;58957;37.742;-0.742;2023-01-26T07:23:54;8.70;99.90
71212;DHT22;58957;37.742;-0.742;2023-01-26T07:26:23;8.70;99.90
71212;DHT22;58957;37.742;-0.742;2023-01-26T07:28:51;8.70;99.90
71212;DHT22;58957;37.742;-0.742;2023-01-26T07:31:18;8.80;99.90
71212;DHT22;58957;37.742;-0.742;2023-01-26T07:33:45;8.80;99.90
71212;DHT22;58957;37.742;-0.742;2023-01-26T07:36:12;8.80;99.90
71212;DHT22;58957;37.742;-0.742;2023-01-26T07:38:39;8.80;99.90
71212;DHT22;58957;37.742;-0.742;2023-01-26T07:41:08;8.80;99.90
71212;DHT22;58957;37.742;-0.742;2023-01-26T07:43:37;8.80;99.90
71212;DHT22;58957;37.742;-0.742;2023-01-26T07:46:06;8.80;99.90
71212;DHT22;58957;37.742;-0.742;2023-01-26T07:48:35;8.80;99.90
71212;DHT22;58957;37.742;-0.742;2023-01-26T07:51:03;8.80;99.90
71212;DHT22;58957;37.742;-0.742;2023-01-26T07:53:31;8.80;99.90
71212;DHT22;58957;37.742;-0.742;2023-01-26T07:56:06;8.90;99.90
71212;DHT22;58957;37.742;-0.742;2023-01-26T07:58:34;9.00;99.90
71212;DHT22;58957;37.742;-0.742;2023-01-26T08:01:10;9.00;99.90
71212;DHT22;58957;37.742;-0.742;2023-01-26T08:03:37;9.10;99.90
71212;DHT22;58957;37.742;-0.742;2023-01-26T08:06:05;9.10;99.90
71212;DHT22;58957;37.742;-0.742;2023-01-26T08:08:33;9.20;99.90
71212;DHT22;58957;37.742;-0.742;2023-01-26T08:11:01;9.30;99.90
71212;DHT22;58957;37.742;-0.742;2023-01-26T08:13:29;9.40;99.90
71212;DHT22;58957;37.742;-0.742;2023-01-26T08:16:00;9.40;99.90
71212;DHT22;58957;37.742;-0.742;2023-01-26T08:18:30;9.40;99.90
71212;DHT22;58957;37.742;-0.742;2023-01-26T08:20:57;9.40;99.90
71212;DHT22;58957;37.742;-0.742;2023-01-26T08:23:25;9.30;99.90
71212;DHT22;58957;37.742;-0.742;2023-01-26T08:25:52;9.30;99.90
71212;DHT22;58957;37.742;-0.742;2023-01-26T08:28:19;9.30;99.90
71212;DHT22;58957;37.742;-0.742;2023-01-26T08:30:46;9.20;99.90
71212;DHT22;58957;37.742;-0.742;2023-01-26T08:33:13;9.30;99.90
71212;DHT22;58957;37.742;-0.742;2023-01-26T08:35:42;9.40;99.90
71212;DHT22;58957;37.742;-0.742;2023-01-26T08:38:09;9.60;99.90
71212;DHT22;58957;37.742;-0.742;2023-01-26T08:40:36;9.70;99.80
71212;DHT22;58957;37.742;-0.742;2023-01-26T08:43:03;9.70;98.40
71212;DHT22;58957;37.742;-0.742;2023-01-26T08:45:31;9.80;98.00
71212;DHT22;58957;37.742;-0.742;2023-01-26T08:47:58;9.80;97.80
71212;DHT22;58957;37.742;-0.742;2023-01-26T08:50:25;9.80;99.90
71212;DHT22;58957;37.742;-0.742;2023-01-26T08:52:55;9.80;99.60
71212;DHT22;58957;37.742;-0.742;2023-01-26T08:55:23;9.80;99.50
71212;DHT22;58957;37.742;-0.742;2023-01-26T08:57:53;9.80;99.90
71212;DHT22;58957;37.742;-0.742;2023-01-26T09:00:24;9.80;99.50
71212;DHT22;58957;37.742;-0.742;2023-01-26T09:02:57;9.90;99.50
71212;DHT22;58957;37.742;-0.742;2023-01-26T09:05:24;9.90;98.70
71212;DHT22;58957;37.742;-0.742;2023-01-26T09:07:52;9.90;99.90
71212;DHT22;58957;37.742;-0.742;2023-01-26T09:10:21;10.00;99.10
71212;DHT22;58957;37.742;-0.742;2023-01-26T09:12:48;10.00;99.90
71212;DHT22;58957;37.742;-0.742;2023-01-26T09:15:15;10.00;99.90
71212;DHT22;58957;37.742;-0.742;2023-01-26T09:17:42;10.00;99.90
71212;DHT22;58957;37.742;-0.742;2023-01-26T09:20:10;10.10;99.90
71212;DHT22;58957;37.742;-0.742;2023-01-26T09:22:37;10.10;99.80
71212;DHT22;58957;37.742;-0.742;2023-01-26T09:25:05;10.10;99.10
71212;DHT22;58957;37.742;-0.742;2023-01-26T09:27:34;10.40;98.90
71212;DHT22;58957;37.742;-0.742;2023-01-26T09:30:02;10.50;98.60
71212;DHT22;58957;37.742;-0.742;2023-01-26T09:32:30;10.50;96.90
71212;DHT22;58957;37.742;-0.742;2023-01-26T09:34:57;10.60;95.60
71212;DHT22;58957;37.742;-0.742;2023-01-26T09:37:24;10.60;95.70
71212;DHT22;58957;37.742;-0.742;2023-01-26T09:39:51;10.60;97.80
71212;DHT22;58957;37.742;-0.742;2023-01-26T09:42:44;10.40;97.90
71212;DHT22;58957;37.742;-0.742;2023-01-26T09:45:23;10.60;98.20
71212;DHT22;58957;37.742;-0.742;2023-01-26T09:48:11;10.80;96.80
71212;DHT22;58957;37.742;-0.742;2023-01-26T09:50:44;10.90;95.20
71212;DHT22;58957;37.742;-0.742;2023-01-26T09:53:17;11.10;93.80
71212;DHT22;58957;37.742;-0.742;2023-01-26T09:55:47;11.20;93.10
71212;DHT22;58957;37.742;-0.742;2023-01-26T09:58:20;11.20;94.90
71212;DHT22;58957;37.742;-0.742;2023-01-26T10:00:53;11.10;94.20
71212;DHT22;58957;37.742;-0.742;2023-01-26T10:03:26;11.10;93.20
71212;DHT22;58957;37.742;-0.742;2023-01-26T10:05:59;11.00;94.80
71212;DHT22;58957;37.742;-0.742;2023-01-26T10:08:30;11.00;94.10
71212;DHT22;58957;37.742;-0.742;2023-01-26T10:11:01;10.90;93.30
71212;DHT22;58957;37.742;-0.742;2023-01-26T10:13:30;10.90;94.10
71212;DHT22;58957;37.742;-0.742;2023-01-26T10:16:00;10.90;94.10
71212;DHT22;58957;37.742;-0.742;2023-01-26T10:18:31;10.90;93.40
71212;DHT22;58957;37.742;-0.742;2023-01-26T10:21:01;10.80;95.00
71212;DHT22;58957;37.742;-0.742;2023-01-26T10:23:30;10.80;93.70
71212;DHT22;58957;37.742;-0.742;2023-01-26T10:26:05;10.90;93.80
71212;DHT22;58957;37.742;-0.742;2023-01-26T10:28:35;10.90;93.90
71212;DHT22;58957;37.742;-0.742;2023-01-26T10:31:03;10.90;93.10
71212;DHT22;58957;37.742;-0.742;2023-01-26T10:33:33;10.90;92.70
71212;DHT22;58957;37.742;-0.742;2023-01-26T10:36:02;11.00;92.70
71212;DHT22;58957;37.742;-0.742;2023-01-26T10:38:40;11.00;92.90
71212;DHT22;58957;37.742;-0.742;2023-01-26T10:41:22;11.00;94.10
71212;DHT22;58957;37.742;-0.742;2023-01-26T10:43:52;11.10;93.60
71212;DHT22;58957;37.742;-0.742;2023-01-26T10:46:26;11.10;92.10
71212;DHT22;58957;37.742;-0.742;2023-01-26T10:48:54;11.10;92.80
71212;DHT22;58957;37.742;-0.742;2023-01-26T10:51:25;11.20;91.30
71212;DHT22;58957;37.742;-0.742;2023-01-26T10:54:19;11.20;92.50
71212;DHT22;58957;37.742;-0.742;2023-01-26T10:56:48;11.20;95.20
71212;DHT22;58957;37.742;-0.742;2023-01-26T10:59:24;11.30;93.30
71212;DHT22;58957;37.742;-0.742;2023-01-26T11:01:53;11.30;91.90
71212;DHT22;58957;37.742;-0.742;2023-01-26T11:04:23;11.40;92.70
71212;DHT22;58957;37.742;-0.742;2023-01-26T11:06:51;11.30;86.40
71212;DHT22;58957;37.742;-0.742;2023-01-26T11:09:21;11.40;90.10
71212;DHT22;58957;37.742;-0.742;2023-01-26T11:11:58;11.50;90.00
71212;DHT22;58957;37.742;-0.742;2023-01-26T11:14:28;11.50;88.90
71212;DHT22;58957;37.742;-0.742;2023-01-26T11:17:05;11.60;90.20
71212;DHT22;58957;37.742;-0.742;2023-01-26T11:19:51;11.70;89.90
71212;DHT22;58957;37.742;-0.742;2023-01-26T11:22:29;11.70;90.80
71212;DHT22;58957;37.742;-0.742;2023-01-26T11:25:02;11.80;88.90
71212;DHT22;58957;37.742;-0.742;2023-01-26T11:27:41;11.80;90.80
71212;DHT22;58957;37.742;-0.742;2023-01-26T11:30:28;11.90;87.70
71212;DHT22;58957;37.742;-0.742;2023-01-26T11:33:05;12.10;87.10
71212;DHT22;58957;37.742;-0.742;2023-01-26T11:35:41;12.20;90.30
71212;DHT22;58957;37.742;-0.742;2023-01-26T11:41:18;12.20;90.20
71212;DHT22;58957;37.742;-0.742;2023-01-26T11:44:20;12.30;90.40
71212;DHT22;58957;37.742;-0.742;2023-01-26T11:47:04;12.30;85.50
71212;DHT22;58957;37.742;-0.742;2023-01-26T11:50:03;12.30;87.10
71212;DHT22;58957;37.742;-0.742;2023-01-26T11:52:45;12.40;90.00
71212;DHT22;58957;37.742;-0.742;2023-01-26T11:55:24;12.30;87.10
71212;DHT22;58957;37.742;-0.742;2023-01-26T11:58:11;12.30;89.50
71212;DHT22;58957;37.742;-0.742;2023-01-26T12:00:43;12.30;90.40
71212;DHT22;58957;37.742;-0.742;2023-01-26T12:03:21;12.20;90.00
71212;DHT22;58957;37.742;-0.742;2023-01-26T12:05:52;12.30;91.40
71212;DHT22;58957;37.742;-0.742;2023-01-26T12:08:24;12.40;90.50
71212;DHT22;58957;37.742;-0.742;2023-01-26T12:10:59;12.30;90.30
71212;DHT22;58957;37.742;-0.742;2023-01-26T12:14:00;12.40;90.10
71212;DHT22;58957;37.742;-0.742;2023-01-26T12:16:37;12.50;90.80
71212;DHT22;58957;37.742;-0.742;2023-01-26T12:19:14;12.50;89.30
71212;DHT22;58957;37.742;-0.742;2023-01-26T12:21:44;12.50;90.80
71212;DHT22;58957;37.742;-0.742;2023-01-26T12:24:17;12.50;89.00
71212;DHT22;58957;37.742;-0.742;2023-01-26T12:26:49;12.40;84.80
71212;DHT22;58957;37.742;-0.742;2023-01-26T12:29:21;12.40;83.40
71212;DHT22;58957;37.742;-0.742;2023-01-26T12:31:53;12.50;83.50
71212;DHT22;58957;37.742;-0.742;2023-01-26T12:34:26;12.70;85.00
71212;DHT22;58957;37.742;-0.742;2023-01-26T12:37:03;12.80;87.90
71212;DHT22;58957;37.742;-0.742;2023-01-26T12:39:34;13.00;85.00
71212;DHT22;58957;37.742;-0.742;2023-01-26T12:42:18;13.20;85.80
71212;DHT22;58957;37.742;-0.742;2023-01-26T12:44:52;13.30;85.00
71212;DHT22;58957;37.742;-0.742;2023-01-26T12:47:23;13.20;82.90
71212;DHT22;58957;37.742;-0.742;2023-01-26T12:49:59;13.40;78.30
71212;DHT22;58957;37.742;-0.742;2023-01-26T12:52:33;13.60;79.50
71212;DHT22;58957;37.742;-0.742;2023-01-26T12:55:10;13.60;76.00
71212;DHT22;58957;37.742;-0.742;2023-01-26T12:57:41;13.60;75.80
71212;DHT22;58957;37.742;-0.742;2023-01-26T13:00:19;13.80;75.90
71212;DHT22;58957;37.742;-0.742;2023-01-26T13:02:49;14.10;78.80
71212;DHT22;58957;37.742;-0.742;2023-01-26T13:05:30;14.30;81.30
71212;DHT22;58957;37.742;-0.742;2023-01-26T13:08:03;14.20;77.60
71212;DHT22;58957;37.742;-0.742;2023-01-26T13:10:50;14.50;74.10
71212;DHT22;58957;37.742;-0.742;2023-01-26T13:13:29;14.90;76.10
71212;DHT22;58957;37.742;-0.742;2023-01-26T13:16:31;15.10;74.60
71212;DHT22;58957;37.742;-0.742;2023-01-26T13:19:00;15.40;71.90
71212;DHT22;58957;37.742;-0.742;2023-01-26T13:21:41;15.90;71.60
71212;DHT22;58957;37.742;-0.742;2023-01-26T13:24:42;15.20;72.30
71212;DHT22;58957;37.742;-0.742;2023-01-26T13:27:27;14.50;73.90
71212;DHT22;58957;37.742;-0.742;2023-01-26T13:29:55;13.90;78.40
71212;DHT22;58957;37.742;-0.742;2023-01-26T13:33:08;13.70;85.80
71212;DHT22;58957;37.742;-0.742;2023-01-26T13:35:37;13.70;85.70
71212;DHT22;58957;37.742;-0.742;2023-01-26T13:38:13;13.90;84.90
71212;DHT22;58957;37.742;-0.742;2023-01-26T13:40:45;14.40;79.10
71212;DHT22;58957;37.742;-0.742;2023-01-26T13:43:18;15.20;76.50
71212;DHT22;58957;37.742;-0.742;2023-01-26T13:46:04;15.50;74.80
71212;DHT22;58957;37.742;-0.742;2023-01-26T13:48:43;15.10;73.10
71212;DHT22;58957;37.742;-0.742;2023-01-26T13:51:14;15.20;75.00
71212;DHT22;58957;37.742;-0.742;2023-01-26T13:53:52;16.00;73.50
71212;DHT22;58957;37.742;-0.742;2023-01-26T13:56:24;16.50;74.60
71212;DHT22;58957;37.742;-0.742;2023-01-26T13:58:52;16.60;73.70
71212;DHT22;58957;37.742;-0.742;2023-01-26T14:01:19;16.80;71.80
71212;DHT22;58957;37.742;-0.742;2023-01-26T14:03:47;16.60;72.00
71212;DHT22;58957;37.742;-0.742;2023-01-26T14:06:16;16.50;69.00
71212;DHT22;58957;37.742;-0.742;2023-01-26T14:08:50;16.20;68.70
71212;DHT22;58957;37.742;-0.742;2023-01-26T14:11:20;15.90;69.90
71212;DHT22;58957;37.742;-0.742;2023-01-26T14:13:50;15.90;72.30
71212;DHT22;58957;37.742;-0.742;2023-01-26T14:16:22;15.60;69.60
71212;DHT22;58957;37.742;-0.742;2023-01-26T14:18:50;15.40;70.50
71212;DHT22;58957;37.742;-0.742;2023-01-26T14:21:20;15.10;72.90
71212;DHT22;58957;37.742;-0.742;2023-01-26T14:23:55;14.70;75.20
71212;DHT22;58957;37.742;-0.742;2023-01-26T14:26:28;14.30;77.50
71212;DHT22;58957;37.742;-0.742;2023-01-26T14:28:57;14.10;77.30
71212;DHT22;58957;37.742;-0.742;2023-01-26T14:31:26;13.90;79.50
71212;DHT22;58957;37.742;-0.742;2023-01-26T14:33:55;13.80;78.50
71212;DHT22;58957;37.742;-0.742;2023-01-26T14:36:25;13.70;76.10
71212;DHT22;58957;37.742;-0.742;2023-01-26T14:38:54;13.60;74.60
71212;DHT22;58957;37.742;-0.742;2023-01-26T14:41:23;13.50;75.80
71212;DHT22;58957;37.742;-0.742;2023-01-26T14:43:52;13.50;79.60
71212;DHT22;58957;37.742;-0.742;2023-01-26T14:46:23;13.40;81.20
71212;DHT22;58957;37.742;-0.742;2023-01-26T14:48:55;13.40;81.80
71212;DHT22;58957;37.742;-0.742;2023-01-26T14:51:25;13.50;84.10
71212;DHT22;58957;37.742;-0.742;2023-01-26T14:53:56;13.50;83.10
71212;DHT22;58957;37.742;-0.742;2023-01-26T14:56:32;13.60;79.10
71212;DHT22;58957;37.742;-0.742;2023-01-26T14:58:59;13.50;80.90
71212;DHT22;58957;37.742;-0.742;2023-01-26T15:01:27;13.50;79.70
71212;DHT22;58957;37.742;-0.742;2023-01-26T15:04:00;13.60;80.20
71212;DHT22;58957;37.742;-0.742;2023-01-26T15:06:29;13.60;79.80
71212;DHT22;58957;37.742;-0.742;2023-01-26T15:09:00;13.70;77.90
71212;DHT22;58957;37.742;-0.742;2023-01-26T15:11:32;13.80;80.00
71212;DHT22;58957;37.742;-0.742;2023-01-26T15:14:34;13.60;81.40
71212;DHT22;58957;37.742;-0.742;2023-01-26T15:17:02;13.30;79.50
71212;DHT22;58957;37.742;-0.742;2023-01-26T15:19:39;13.20;80.50
71212;DHT22;58957;37.742;-0.742;2023-01-26T15:22:18;13.20;86.00
71212;DHT22;58957;37.742;-0.742;2023-01-26T15:25:03;13.10;83.10
71212;DHT22;58957;37.742;-0.742;2023-01-26T15:27:32;13.20;85.30
71212;DHT22;58957;37.742;-0.742;2023-01-26T15:30:00;13.20;86.90
71212;DHT22;58957;37.742;-0.742;2023-01-26T15:32:30;13.10;84.30
71212;DHT22;58957;37.742;-0.742;2023-01-26T15:35:05;13.00;82.50
71212;DHT22;58957;37.742;-0.742;2023-01-26T15:37:33;13.10;84.30
71212;DHT22;58957;37.742;-0.742;2023-01-26T15:40:02;13.00;85.40
71212;DHT22;58957;37.742;-0.742;2023-01-26T15:42:30;13.10;84.30
71212;DHT22;58957;37.742;-0.742;2023-01-26T15:44:58;13.20;84.60
71212;DHT22;58957;37.742;-0.742;2023-01-26T15:47:25;13.30;88.20
71212;DHT22;58957;37.742;-0.742;2023-01-26T15:49:52;13.40;90.00
71212;DHT22;58957;37.742;-0.742;2023-01-26T15:52:21;13.40;85.00
71212;DHT22;58957;37.742;-0.742;2023-01-26T15:54:50;13.40;83.70